map of ERH home
Great Circle Mapper logo
ERH - Airport
Location
City:  Er-Rachidia, Morocco
Name:Moulay Ali Cherif
ICAO / IATA:GMFK / ERH

Details
Type:Airport (Aerodrome, Airfield)
Use:Public/Civil, Military, International (customs port of entry)
Latitude:3156'51"N (31.947500)
Longitude:423'54"W (-4.398332)
Datum:WGS 1984
Elevation:3428 ft (1045 m)
Runways:1
Longest:10499 × 148 ft (3200 × 45 m), paved

Time
Time Zone:UTC+0 (DST+1)
Local Time:

Weather
METAR:GMFK 260500Z 09003KT 9999 SCT026 16/03 Q1023 NOSIG

Related Locations
Nearby:
Farthest:KKE: 12184 mi / 19607 km
Kerikeri/Bay of Islands, NZ

Find:

   beyond  
but within

Other Information
Maps:
NOTAMs:
Links:
Sources:

  
flag of Morocco   

Sectional Chart

Flight Planning
at skyvector.com

Satellite Image

Google Maps Satellite View

 

Copyright © 2004-2014 Karl L. Swartz. All rights reserved.
The Great Circle Mapper name and logo are trademarks of the Great Circle Mapper.
All other trademarks mentioned herein belong to their respective owners.
Please see credits for attibutions and further copyright information.

  Follow gcmap on Facebook Follow gcmap on Twitter

hCard Microformat

Geo Microformat